createdAt,value
2022-11-05T00:05:12.568Z,3.67
2022-11-05T00:10:20.253Z,6.13
2022-11-05T00:15:40.473Z,3.40
2022-11-05T00:20:42.034Z,3.70
2022-11-05T00:25:43.581Z,3.63
2022-11-05T00:30:45.181Z,4.68
2022-11-05T00:35:46.808Z,3.70
2022-11-05T00:40:48.378Z,5.72
2022-11-05T00:45:49.955Z,4.88
2022-11-05T00:50:51.859Z,5.93
2022-11-05T00:55:53.438Z,7.00
2022-11-05T01:00:57.621Z,6.50
2022-11-05T01:06:07.509Z,7.35
2022-11-05T01:11:11.939Z,7.50
2022-11-05T01:16:13.697Z,8.02
2022-11-05T01:21:15.910Z,8.40
2022-11-05T01:26:17.777Z,9.65
2022-11-05T01:31:20.111Z,8.80
2022-11-05T01:36:21.771Z,8.95
2022-11-05T01:41:23.376Z,9.18
2022-11-05T01:46:36.574Z,9.02
2022-11-05T01:51:39.630Z,8.93
2022-11-05T01:56:49.192Z,10.27
2022-11-05T02:02:07.460Z,9.85
2022-11-05T02:07:10.520Z,10.55
2022-11-05T02:12:13.466Z,12.15
2022-11-05T02:17:26.296Z,13.30
2022-11-05T02:23:00.295Z,14.90
2022-11-05T02:28:01.828Z,14.27
2022-11-05T02:33:26.649Z,14.52
2022-11-05T02:38:51.150Z,14.60
2022-11-05T02:44:20.146Z,16.02
2022-11-05T02:49:34.433Z,15.63
2022-11-05T02:54:41.847Z,16.00
2022-11-05T02:59:43.483Z,16.55
2022-11-05T03:04:45.125Z,17.15
2022-11-05T03:10:04.838Z,16.98
2022-11-05T03:15:20.972Z,16.27
2022-11-05T03:20:44.447Z,15.52
2022-11-05T03:25:53.656Z,16.75
2022-11-05T03:30:58.170Z,15.73
2022-11-05T03:36:05.941Z,16.40
2022-11-05T03:41:11.879Z,15.90
2022-11-05T03:46:35.020Z,15.52
2022-11-05T03:52:15.072Z,16.80
2022-11-05T04:02:27.104Z,15.35
2022-11-05T04:07:47.155Z,15.85
2022-11-05T04:18:09.224Z,14.27
2022-11-05T04:23:29.539Z,15.55
2022-11-05T04:28:51.067Z,15.32
2022-11-05T04:33:52.662Z,15.13
2022-11-05T04:38:54.213Z,15.10
2022-11-05T04:43:55.788Z,14.88
2022-11-05T04:48:57.344Z,15.55
2022-11-05T04:53:58.943Z,15.82
2022-11-05T04:59:02.873Z,14.18
2022-11-05T05:04:04.611Z,14.88
2022-11-05T05:09:06.162Z,13.88
2022-11-05T05:14:08.421Z,14.43
2022-11-05T05:19:09.995Z,14.50
2022-11-05T05:24:14.182Z,13.65
2022-11-05T05:29:17.219Z,13.25
2022-11-05T05:34:18.819Z,13.57
2022-11-05T05:39:20.378Z,12.95
2022-11-05T05:44:21.996Z,9.65
2022-11-05T05:49:25.937Z,8.52
2022-11-05T05:54:32.152Z,7.40
2022-11-05T05:59:35.078Z,7.65
2022-11-05T06:04:36.633Z,7.25
2022-11-05T06:09:38.207Z,7.20
2022-11-05T06:14:39.845Z,8.45
2022-11-05T06:19:41.412Z,21.80
2022-11-05T06:24:42.971Z,24.35
2022-11-05T06:29:44.555Z,28.17
2022-11-05T06:34:46.113Z,20.88
2022-11-05T06:39:47.849Z,13.10
2022-11-05T06:44:49.413Z,7.18
2022-11-05T06:49:50.987Z,6.63
2022-11-05T06:54:52.733Z,6.45
2022-11-05T07:00:01.319Z,7.43
2022-11-05T07:05:05.201Z,7.72
2022-11-05T07:10:09.377Z,8.20
2022-11-05T07:15:12.275Z,7.72
2022-11-05T07:20:13.857Z,10.60
2022-11-05T07:25:15.435Z,8.27
2022-11-05T07:30:16.992Z,8.55
2022-11-05T07:35:18.602Z,7.97
2022-11-05T07:40:21.678Z,7.82
2022-11-05T07:45:24.514Z,6.38
2022-11-05T07:50:28.679Z,6.82
2022-11-05T07:55:31.440Z,6.68
2022-11-05T08:00:33.988Z,5.47
2022-11-05T08:05:38.250Z,4.53
2022-11-05T08:10:40.664Z,4.13
2022-11-05T08:15:43.251Z,3.80
2022-11-05T08:20:46.924Z,3.70
2022-11-05T08:25:48.655Z,3.78
2022-11-05T08:30:55.704Z,3.42
2022-11-05T08:36:01.288Z,4.13
2022-11-05T08:41:02.961Z,3.90
2022-11-05T08:46:04.570Z,4.13
2022-11-05T08:51:06.286Z,3.15
2022-11-05T08:56:08.243Z,3.35
2022-11-05T09:01:09.960Z,4.05
2022-11-05T09:06:11.576Z,4.07
2022-11-05T09:11:13.187Z,3.40
2022-11-05T09:16:20.378Z,2.97
2022-11-05T09:21:21.941Z,3.25
2022-11-05T09:26:23.646Z,3.20
2022-11-05T09:31:25.194Z,3.50
2022-11-05T09:36:26.789Z,2.70
2022-11-05T09:41:36.835Z,2.80
2022-11-05T09:46:53.148Z,2.90
2022-11-05T09:51:57.508Z,2.65
2022-11-05T09:57:01.520Z,2.47
2022-11-05T10:02:30.245Z,2.55
2022-11-05T10:07:46.033Z,2.85
2022-11-05T10:12:52.674Z,2.80
2022-11-05T10:18:01.414Z,2.78
2022-11-05T10:23:11.916Z,2.95
2022-11-05T10:28:19.503Z,2.83
2022-11-05T10:33:32.497Z,3.13
2022-11-05T10:38:34.259Z,3.08
2022-11-05T10:43:47.907Z,3.90
2022-11-05T10:49:02.870Z,3.35
2022-11-05T10:54:12.195Z,3.25
2022-11-05T10:59:28.550Z,3.63
2022-11-05T11:04:36.541Z,3.80
2022-11-05T11:09:39.451Z,3.83
2022-11-05T11:14:41.097Z,4.20
2022-11-05T11:19:42.687Z,3.70
2022-11-05T11:24:48.045Z,3.10
2022-11-05T11:30:01.489Z,3.08
2022-11-05T11:35:05.348Z,3.30
2022-11-05T11:40:28.939Z,3.17
2022-11-05T11:45:38.199Z,3.17
2022-11-05T11:50:48.112Z,3.07
2022-11-05T12:01:32.803Z,3.05
2022-11-05T12:06:43.432Z,3.92
2022-11-05T12:12:10.058Z,4.97
2022-11-05T12:17:49.084Z,5.05
2022-11-05T12:23:18.460Z,7.77
2022-11-05T12:28:36.225Z,5.93
2022-11-05T12:33:47.202Z,5.60
2022-11-05T12:39:10.683Z,7.28
2022-11-05T12:44:41.500Z,9.65
2022-11-05T12:50:02.885Z,8.48
2022-11-05T12:55:11.068Z,8.43
2022-11-05T13:00:26.971Z,5.40
2022-11-05T13:05:42.018Z,4.43
2022-11-05T13:10:58.256Z,4.45
2022-11-05T13:16:05.859Z,3.90
2022-11-05T13:21:08.878Z,2.92
2022-11-05T13:26:37.638Z,3.30
2022-11-05T13:31:50.098Z,2.47
2022-11-05T13:37:22.074Z,2.95
2022-11-05T13:42:56.468Z,3.03
2022-11-05T13:48:31.792Z,3.63
2022-11-05T13:53:58.358Z,2.50
2022-11-05T13:59:12.093Z,2.25
2022-11-05T14:04:35.262Z,2.33
2022-11-05T14:09:38.123Z,2.42
2022-11-05T14:14:46.556Z,2.67
2022-11-05T14:20:05.626Z,2.30
2022-11-05T14:25:19.331Z,2.43
2022-11-05T14:30:41.067Z,2.10
2022-11-05T14:35:43.313Z,1.98
2022-11-05T14:40:46.335Z,2.58
2022-11-05T14:45:58.778Z,1.95
2022-11-05T14:51:00.486Z,2.30
2022-11-05T14:56:04.250Z,2.50
2022-11-05T15:01:30.097Z,2.78
2022-11-05T15:06:35.202Z,2.70
2022-11-05T15:11:45.575Z,3.53
2022-11-05T15:16:55.944Z,3.10
2022-11-05T15:22:00.940Z,3.47
2022-11-05T15:27:19.974Z,3.72
2022-11-05T15:32:26.388Z,4.03
2022-11-05T15:37:27.963Z,4.03
2022-11-05T15:42:29.865Z,4.43
2022-11-05T15:47:35.018Z,4.10
2022-11-05T15:52:48.257Z,5.60
2022-11-05T15:57:58.267Z,6.45
2022-11-05T16:08:05.242Z,4.43
2022-11-05T16:13:32.330Z,5.25
2022-11-05T16:18:37.704Z,5.07
2022-11-05T16:23:53.442Z,4.68
2022-11-05T16:28:56.828Z,4.75
2022-11-05T16:33:59.363Z,5.63
2022-11-05T16:39:00.965Z,6.85
2022-11-05T16:44:03.154Z,6.82
2022-11-05T16:49:04.975Z,6.00
2022-11-05T16:54:06.729Z,5.63
2022-11-05T16:59:12.603Z,6.90
2022-11-05T17:04:14.230Z,6.47
2022-11-05T17:09:16.403Z,7.90
2022-11-05T17:14:17.987Z,8.13
2022-11-05T17:19:19.756Z,6.93
2022-11-05T17:24:21.525Z,6.72
2022-11-05T17:29:23.101Z,6.88
2022-11-05T17:34:24.710Z,8.27
2022-11-05T17:39:31.429Z,11.80
2022-11-05T17:44:33.488Z,10.07
2022-11-05T17:49:35.046Z,9.77
2022-11-05T17:54:36.615Z,10.55
2022-11-05T17:59:38.242Z,10.45
2022-11-05T18:04:40.168Z,10.15
2022-11-05T18:09:42.188Z,12.60
2022-11-05T18:14:43.814Z,12.23
2022-11-05T18:19:45.407Z,12.88
2022-11-05T18:24:46.998Z,10.77
2022-11-05T18:29:48.554Z,10.45
2022-11-05T18:34:50.152Z,10.68
2022-11-05T18:39:52.926Z,11.00
2022-11-05T18:44:54.611Z,10.10
2022-11-05T18:49:56.276Z,9.05
2022-11-05T18:54:58.698Z,11.20
2022-11-05T19:00:00.886Z,8.48
2022-11-05T19:10:24.371Z,10.02
2022-11-05T19:15:26.048Z,12.68
2022-11-05T19:20:28.138Z,13.10
2022-11-05T19:25:29.745Z,13.55
2022-11-05T19:30:31.350Z,12.40
2022-11-05T19:35:35.705Z,11.40
2022-11-05T19:40:41.777Z,12.02
2022-11-05T19:45:44.970Z,13.23
2022-11-05T19:50:47.048Z,12.90
2022-11-05T19:55:48.640Z,11.45
2022-11-05T20:00:50.192Z,10.73
2022-11-05T20:05:51.809Z,11.70
2022-11-05T20:10:55.151Z,13.13
2022-11-05T20:15:57.160Z,14.93
2022-11-05T20:21:17.190Z,14.50
2022-11-05T20:26:18.881Z,15.05
2022-11-05T20:31:20.767Z,15.50
2022-11-05T20:36:24.462Z,16.00
2022-11-05T20:41:26.713Z,17.70
2022-11-05T20:46:28.489Z,16.75
2022-11-05T20:51:30.120Z,18.05
2022-11-05T20:56:34.684Z,18.00
2022-11-05T21:01:36.493Z,15.57
2022-11-05T21:06:38.102Z,14.07
2022-11-05T21:11:58.410Z,14.45
2022-11-05T21:17:00.041Z,14.93
2022-11-05T21:22:02.775Z,14.55
2022-11-05T21:27:04.341Z,14.18
2022-11-05T21:32:08.335Z,11.85
2022-11-05T21:37:09.905Z,11.38
2022-11-05T21:42:11.469Z,12.45
2022-11-05T21:47:13.858Z,13.07
2022-11-05T21:52:34.165Z,20.25
2022-11-05T21:57:54.466Z,12.57
2022-11-05T22:02:56.116Z,11.63
2022-11-05T22:08:03.548Z,10.52
2022-11-05T22:13:05.214Z,10.35
2022-11-05T22:18:06.862Z,9.80
2022-11-05T22:23:11.217Z,10.18
2022-11-05T22:28:13.403Z,10.18
2022-11-05T22:33:15.167Z,11.20
2022-11-05T22:38:16.800Z,10.40
2022-11-05T22:43:18.388Z,11.73
2022-11-05T22:48:19.954Z,10.98
2022-11-05T22:53:21.521Z,12.50
2022-11-05T22:58:23.063Z,15.75
2022-11-05T23:03:25.892Z,11.50
2022-11-05T23:08:46.578Z,13.88
2022-11-05T23:13:48.196Z,19.52
2022-11-05T23:19:08.344Z,17.10
2022-11-05T23:24:12.861Z,13.68
2022-11-05T23:29:14.426Z,15.48
2022-11-05T23:34:15.993Z,13.48
2022-11-05T23:39:17.546Z,12.90
2022-11-05T23:44:37.595Z,12.48
2022-11-05T23:49:39.163Z,13.05
2022-11-05T23:54:40.779Z,13.02
2022-11-05T23:59:42.414Z,12.27
